sensor_id;sensor_type;location;lat;lon;timestamp;P1;durP1;ratioP1;P2;durP2;ratioP2
68479;SDS011;55469;48.934;12.050;2023-06-19T00:00:09;6.35;;;4.78;;
68479;SDS011;55469;48.934;12.050;2023-06-19T00:02:39;5.43;;;4.78;;
68479;SDS011;55469;48.934;12.050;2023-06-19T00:05:05;5.63;;;4.53;;
68479;SDS011;55469;48.934;12.050;2023-06-19T00:07:32;5.78;;;4.68;;
68479;SDS011;55469;48.934;12.050;2023-06-19T00:10:02;6.22;;;5.20;;
68479;SDS011;55469;48.934;12.050;2023-06-19T00:12:29;5.75;;;5.10;;
68479;SDS011;55469;48.934;12.050;2023-06-19T00:14:55;5.72;;;5.22;;
68479;SDS011;55469;48.934;12.050;2023-06-19T00:17:21;6.75;;;5.22;;
68479;SDS011;55469;48.934;12.050;2023-06-19T00:19:47;5.68;;;5.10;;
68479;SDS011;55469;48.934;12.050;2023-06-19T00:22:13;5.70;;;5.05;;
68479;SDS011;55469;48.934;12.050;2023-06-19T00:24:40;5.57;;;4.65;;
68479;SDS011;55469;48.934;12.050;2023-06-19T00:27:06;5.35;;;4.80;;
68479;SDS011;55469;48.934;12.050;2023-06-19T00:29:32;6.38;;;4.43;;
68479;SDS011;55469;48.934;12.050;2023-06-19T00:31:58;5.25;;;4.43;;
68479;SDS011;55469;48.934;12.050;2023-06-19T00:34:25;5.25;;;4.70;;
68479;SDS011;55469;48.934;12.050;2023-06-19T00:36:51;5.93;;;4.80;;
68479;SDS011;55469;48.934;12.050;2023-06-19T00:39:21;5.32;;;4.82;;
68479;SDS011;55469;48.934;12.050;2023-06-19T00:41:48;4.95;;;4.28;;
68479;SDS011;55469;48.934;12.050;2023-06-19T00:44:17;5.22;;;4.35;;
68479;SDS011;55469;48.934;12.050;2023-06-19T00:46:42;4.57;;;4.18;;
68479;SDS011;55469;48.934;12.050;2023-06-19T00:49:08;5.38;;;4.88;;
68479;SDS011;55469;48.934;12.050;2023-06-19T00:51:34;5.30;;;4.80;;
68479;SDS011;55469;48.934;12.050;2023-06-19T00:54:00;5.10;;;4.60;;
68479;SDS011;55469;48.934;12.050;2023-06-19T00:56:26;5.78;;;4.75;;
68479;SDS011;55469;48.934;12.050;2023-06-19T00:58:55;5.45;;;4.95;;
68479;SDS011;55469;48.934;12.050;2023-06-19T01:01:21;5.88;;;4.63;;
68479;SDS011;55469;48.934;12.050;2023-06-19T01:03:48;5.20;;;4.70;;
68479;SDS011;55469;48.934;12.050;2023-06-19T01:06:15;5.53;;;4.70;;
68479;SDS011;55469;48.934;12.050;2023-06-19T01:09:03;6.35;;;4.78;;
68479;SDS011;55469;48.934;12.050;2023-06-19T01:11:33;6.30;;;5.15;;
68479;SDS011;55469;48.934;12.050;2023-06-19T01:14:08;4.95;;;4.45;;
68479;SDS011;55469;48.934;12.050;2023-06-19T01:17:10;5.97;;;4.57;;
68479;SDS011;55469;48.934;12.050;2023-06-19T01:19:36;5.50;;;4.97;;
68479;SDS011;55469;48.934;12.050;2023-06-19T01:22:04;5.22;;;4.72;;
68479;SDS011;55469;48.934;12.050;2023-06-19T01:24:30;5.93;;;5.10;;
68479;SDS011;55469;48.934;12.050;2023-06-19T01:26:57;6.28;;;5.20;;
68479;SDS011;55469;48.934;12.050;2023-06-19T01:29:23;5.85;;;5.22;;
68479;SDS011;55469;48.934;12.050;2023-06-19T01:31:54;5.60;;;4.45;;
68479;SDS011;55469;48.934;12.050;2023-06-19T01:34:38;7.50;;;4.80;;
68479;SDS011;55469;48.934;12.050;2023-06-19T01:37:04;5.68;;;4.70;;
68479;SDS011;55469;48.934;12.050;2023-06-19T01:39:31;5.60;;;4.97;;
68479;SDS011;55469;48.934;12.050;2023-06-19T01:41:58;5.47;;;4.47;;
68479;SDS011;55469;48.934;12.050;2023-06-19T01:44:24;5.35;;;4.72;;
68479;SDS011;55469;48.934;12.050;2023-06-19T01:46:51;5.43;;;4.88;;
68479;SDS011;55469;48.934;12.050;2023-06-19T01:49:17;5.93;;;5.00;;
68479;SDS011;55469;48.934;12.050;2023-06-19T01:51:43;6.50;;;5.10;;
68479;SDS011;55469;48.934;12.050;2023-06-19T01:54:08;5.65;;;5.15;;
68479;SDS011;55469;48.934;12.050;2023-06-19T01:56:34;5.55;;;4.70;;
68479;SDS011;55469;48.934;12.050;2023-06-19T01:59:01;5.85;;;5.05;;
68479;SDS011;55469;48.934;12.050;2023-06-19T02:01:28;6.10;;;5.10;;
68479;SDS011;55469;48.934;12.050;2023-06-19T02:03:54;5.80;;;4.80;;
68479;SDS011;55469;48.934;12.050;2023-06-19T02:06:20;5.47;;;4.97;;
68479;SDS011;55469;48.934;12.050;2023-06-19T02:08:46;5.63;;;4.93;;
68479;SDS011;55469;48.934;12.050;2023-06-19T02:11:13;6.28;;;5.05;;
68479;SDS011;55469;48.934;12.050;2023-06-19T02:13:39;6.55;;;5.50;;
68479;SDS011;55469;48.934;12.050;2023-06-19T02:16:05;5.95;;;5.35;;
68479;SDS011;55469;48.934;12.050;2023-06-19T02:18:31;6.40;;;5.38;;
68479;SDS011;55469;48.934;12.050;2023-06-19T02:20:57;6.00;;;5.15;;
68479;SDS011;55469;48.934;12.050;2023-06-19T02:23:23;6.32;;;5.43;;
68479;SDS011;55469;48.934;12.050;2023-06-19T02:25:49;5.95;;;4.72;;
68479;SDS011;55469;48.934;12.050;2023-06-19T02:28:15;7.00;;;5.50;;
68479;SDS011;55469;48.934;12.050;2023-06-19T02:30:41;6.43;;;5.50;;
68479;SDS011;55469;48.934;12.050;2023-06-19T02:33:06;6.25;;;5.25;;
68479;SDS011;55469;48.934;12.050;2023-06-19T02:35:32;5.95;;;5.30;;
68479;SDS011;55469;48.934;12.050;2023-06-19T02:37:58;7.38;;;5.72;;
68479;SDS011;55469;48.934;12.050;2023-06-19T02:40:24;5.72;;;5.10;;
68479;SDS011;55469;48.934;12.050;2023-06-19T02:42:49;5.28;;;4.78;;
68479;SDS011;55469;48.934;12.050;2023-06-19T02:45:15;7.05;;;4.88;;
68479;SDS011;55469;48.934;12.050;2023-06-19T02:47:41;6.88;;;5.32;;
68479;SDS011;55469;48.934;12.050;2023-06-19T02:50:07;5.68;;;5.07;;
68479;SDS011;55469;48.934;12.050;2023-06-19T02:52:33;5.68;;;5.18;;
68479;SDS011;55469;48.934;12.050;2023-06-19T02:54:58;7.07;;;6.22;;
68479;SDS011;55469;48.934;12.050;2023-06-19T02:57:24;6.72;;;6.03;;
68479;SDS011;55469;48.934;12.050;2023-06-19T02:59:50;6.82;;;6.05;;
68479;SDS011;55469;48.934;12.050;2023-06-19T03:02:16;6.68;;;5.97;;
68479;SDS011;55469;48.934;12.050;2023-06-19T03:04:42;6.72;;;5.40;;
68479;SDS011;55469;48.934;12.050;2023-06-19T03:07:09;6.32;;;5.72;;
68479;SDS011;55469;48.934;12.050;2023-06-19T03:09:34;6.95;;;5.45;;
68479;SDS011;55469;48.934;12.050;2023-06-19T03:12:01;4.78;;;4.38;;
68479;SDS011;55469;48.934;12.050;2023-06-19T03:14:27;6.20;;;5.13;;
68479;SDS011;55469;48.934;12.050;2023-06-19T03:16:53;6.47;;;5.68;;
68479;SDS011;55469;48.934;12.050;2023-06-19T03:19:18;5.80;;;5.30;;
68479;SDS011;55469;48.934;12.050;2023-06-19T03:21:44;6.68;;;5.97;;
68479;SDS011;55469;48.934;12.050;2023-06-19T03:24:10;6.43;;;5.63;;
68479;SDS011;55469;48.934;12.050;2023-06-19T03:26:35;6.05;;;5.45;;
68479;SDS011;55469;48.934;12.050;2023-06-19T03:29:01;6.93;;;5.68;;
68479;SDS011;55469;48.934;12.050;2023-06-19T03:31:27;6.15;;;5.55;;
68479;SDS011;55469;48.934;12.050;2023-06-19T03:33:53;6.15;;;5.55;;
68479;SDS011;55469;48.934;12.050;2023-06-19T03:36:18;6.45;;;5.53;;
68479;SDS011;55469;48.934;12.050;2023-06-19T03:38:44;5.85;;;4.97;;
68479;SDS011;55469;48.934;12.050;2023-06-19T03:41:11;7.15;;;5.88;;
68479;SDS011;55469;48.934;12.050;2023-06-19T03:43:37;5.95;;;5.32;;
68479;SDS011;55469;48.934;12.050;2023-06-19T03:46:03;6.63;;;5.93;;
68479;SDS011;55469;48.934;12.050;2023-06-19T03:48:29;5.93;;;5.32;;
68479;SDS011;55469;48.934;12.050;2023-06-19T03:50:55;8.40;;;5.75;;
68479;SDS011;55469;48.934;12.050;2023-06-19T03:53:21;6.50;;;5.80;;
68479;SDS011;55469;48.934;12.050;2023-06-19T03:55:47;6.45;;;5.72;;
68479;SDS011;55469;48.934;12.050;2023-06-19T03:58:13;7.15;;;5.85;;
68479;SDS011;55469;48.934;12.050;2023-06-19T04:00:38;7.47;;;5.57;;
68479;SDS011;55469;48.934;12.050;2023-06-19T04:03:06;5.93;;;5.30;;
68479;SDS011;55469;48.934;12.050;2023-06-19T04:05:33;5.80;;;5.20;;
68479;SDS011;55469;48.934;12.050;2023-06-19T04:07:59;6.25;;;5.47;;
68479;SDS011;55469;48.934;12.050;2023-06-19T04:10:24;6.43;;;5.28;;
68479;SDS011;55469;48.934;12.050;2023-06-19T04:12:50;6.18;;;5.35;;
68479;SDS011;55469;48.934;12.050;2023-06-19T04:15:16;8.07;;;5.65;;
68479;SDS011;55469;48.934;12.050;2023-06-19T04:17:42;6.80;;;5.60;;
68479;SDS011;55469;48.934;12.050;2023-06-19T04:20:08;6.63;;;5.80;;
68479;SDS011;55469;48.934;12.050;2023-06-19T04:22:39;6.03;;;5.43;;
68479;SDS011;55469;48.934;12.050;2023-06-19T04:25:06;5.68;;;5.10;;
68479;SDS011;55469;48.934;12.050;2023-06-19T04:27:33;6.78;;;5.70;;
68479;SDS011;55469;48.934;12.050;2023-06-19T04:30:00;6.15;;;5.28;;
68479;SDS011;55469;48.934;12.050;2023-06-19T04:32:29;5.90;;;5.30;;
68479;SDS011;55469;48.934;12.050;2023-06-19T04:34:55;5.70;;;4.82;;
68479;SDS011;55469;48.934;12.050;2023-06-19T04:37:21;7.05;;;5.65;;
68479;SDS011;55469;48.934;12.050;2023-06-19T04:39:46;5.93;;;5.35;;
68479;SDS011;55469;48.934;12.050;2023-06-19T04:42:16;5.85;;;5.25;;
68479;SDS011;55469;48.934;12.050;2023-06-19T04:44:44;6.38;;;5.03;;
68479;SDS011;55469;48.934;12.050;2023-06-19T04:47:11;6.13;;;5.45;;
68479;SDS011;55469;48.934;12.050;2023-06-19T04:49:36;6.30;;;5.35;;
68479;SDS011;55469;48.934;12.050;2023-06-19T04:52:02;5.68;;;4.90;;
68479;SDS011;55469;48.934;12.050;2023-06-19T04:54:28;6.50;;;5.47;;
68479;SDS011;55469;48.934;12.050;2023-06-19T04:56:57;6.10;;;5.50;;
68479;SDS011;55469;48.934;12.050;2023-06-19T04:59:23;5.90;;;5.32;;
68479;SDS011;55469;48.934;12.050;2023-06-19T05:01:49;6.18;;;5.30;;
68479;SDS011;55469;48.934;12.050;2023-06-19T05:04:18;6.25;;;5.30;;
68479;SDS011;55469;48.934;12.050;2023-06-19T05:06:45;6.00;;;5.25;;
68479;SDS011;55469;48.934;12.050;2023-06-19T05:09:11;6.32;;;5.68;;
68479;SDS011;55469;48.934;12.050;2023-06-19T05:11:37;5.95;;;5.35;;
68479;SDS011;55469;48.934;12.050;2023-06-19T05:14:02;6.20;;;5.43;;
68479;SDS011;55469;48.934;12.050;2023-06-19T05:16:28;6.55;;;5.40;;
68479;SDS011;55469;48.934;12.050;2023-06-19T05:18:54;5.90;;;5.30;;
68479;SDS011;55469;48.934;12.050;2023-06-19T05:21:20;5.65;;;5.05;;
68479;SDS011;55469;48.934;12.050;2023-06-19T05:23:45;6.57;;;5.25;;
68479;SDS011;55469;48.934;12.050;2023-06-19T05:26:22;7.32;;;5.25;;
68479;SDS011;55469;48.934;12.050;2023-06-19T05:28:48;5.88;;;5.18;;
68479;SDS011;55469;48.934;12.050;2023-06-19T05:31:15;6.15;;;5.20;;
68479;SDS011;55469;48.934;12.050;2023-06-19T05:33:41;6.15;;;5.10;;
68479;SDS011;55469;48.934;12.050;2023-06-19T05:36:07;6.05;;;5.00;;
68479;SDS011;55469;48.934;12.050;2023-06-19T05:38:33;7.32;;;5.72;;
68479;SDS011;55469;48.934;12.050;2023-06-19T05:40:58;6.50;;;5.28;;
68479;SDS011;55469;48.934;12.050;2023-06-19T05:43:24;7.55;;;5.28;;
68479;SDS011;55469;48.934;12.050;2023-06-19T05:45:51;7.80;;;5.82;;
68479;SDS011;55469;48.934;12.050;2023-06-19T05:48:18;6.93;;;5.32;;
68479;SDS011;55469;48.934;12.050;2023-06-19T05:50:44;6.10;;;5.40;;
68479;SDS011;55469;48.934;12.050;2023-06-19T05:53:10;5.78;;;5.28;;
68479;SDS011;55469;48.934;12.050;2023-06-19T05:55:35;6.07;;;5.25;;
68479;SDS011;55469;48.934;12.050;2023-06-19T05:58:02;5.70;;;4.95;;
68479;SDS011;55469;48.934;12.050;2023-06-19T06:00:29;5.90;;;5.30;;
68479;SDS011;55469;48.934;12.050;2023-06-19T06:02:58;6.90;;;5.07;;
68479;SDS011;55469;48.934;12.050;2023-06-19T06:05:27;7.50;;;6.03;;
68479;SDS011;55469;48.934;12.050;2023-06-19T06:07:53;6.10;;;5.50;;
68479;SDS011;55469;48.934;12.050;2023-06-19T06:10:21;6.32;;;5.30;;
68479;SDS011;55469;48.934;12.050;2023-06-19T06:12:47;5.90;;;5.30;;
68479;SDS011;55469;48.934;12.050;2023-06-19T06:15:14;7.45;;;5.05;;
68479;SDS011;55469;48.934;12.050;2023-06-19T06:17:40;6.13;;;5.10;;
68479;SDS011;55469;48.934;12.050;2023-06-19T06:20:06;7.32;;;5.55;;
68479;SDS011;55469;48.934;12.050;2023-06-19T06:22:42;6.55;;;5.50;;
68479;SDS011;55469;48.934;12.050;2023-06-19T06:25:08;6.22;;;5.38;;
68479;SDS011;55469;48.934;12.050;2023-06-19T06:27:37;7.35;;;5.25;;
68479;SDS011;55469;48.934;12.050;2023-06-19T06:30:03;5.22;;;4.72;;
68479;SDS011;55469;48.934;12.050;2023-06-19T06:32:29;6.03;;;5.32;;
68479;SDS011;55469;48.934;12.050;2023-06-19T06:34:56;6.15;;;5.55;;
68479;SDS011;55469;48.934;12.050;2023-06-19T06:37:22;6.00;;;5.25;;
68479;SDS011;55469;48.934;12.050;2023-06-19T06:39:48;7.90;;;5.20;;
68479;SDS011;55469;48.934;12.050;2023-06-19T06:42:14;8.38;;;5.47;;
68479;SDS011;55469;48.934;12.050;2023-06-19T06:44:41;6.75;;;5.70;;
68479;SDS011;55469;48.934;12.050;2023-06-19T06:47:07;6.25;;;5.50;;
68479;SDS011;55469;48.934;12.050;2023-06-19T06:49:32;7.00;;;5.75;;
68479;SDS011;55469;48.934;12.050;2023-06-19T06:51:58;6.18;;;5.38;;
68479;SDS011;55469;48.934;12.050;2023-06-19T06:54:24;6.90;;;5.07;;
68479;SDS011;55469;48.934;12.050;2023-06-19T06:56:50;8.35;;;5.47;;
68479;SDS011;55469;48.934;12.050;2023-06-19T06:59:17;6.68;;;5.28;;
68479;SDS011;55469;48.934;12.050;2023-06-19T07:01:43;7.47;;;5.40;;
68479;SDS011;55469;48.934;12.050;2023-06-19T07:04:09;6.70;;;5.32;;
68479;SDS011;55469;48.934;12.050;2023-06-19T07:06:35;6.93;;;5.78;;
68479;SDS011;55469;48.934;12.050;2023-06-19T07:09:01;6.15;;;5.55;;
68479;SDS011;55469;48.934;12.050;2023-06-19T07:11:27;6.72;;;5.65;;
68479;SDS011;55469;48.934;12.050;2023-06-19T07:13:53;8.95;;;5.00;;
68479;SDS011;55469;48.934;12.050;2023-06-19T07:16:18;6.57;;;5.60;;
68479;SDS011;55469;48.934;12.050;2023-06-19T07:18:44;5.82;;;5.22;;
68479;SDS011;55469;48.934;12.050;2023-06-19T07:21:11;6.28;;;5.53;;
68479;SDS011;55469;48.934;12.050;2023-06-19T07:23:38;8.63;;;5.32;;
68479;SDS011;55469;48.934;12.050;2023-06-19T07:26:10;6.80;;;5.55;;
68479;SDS011;55469;48.934;12.050;2023-06-19T07:28:38;7.90;;;5.55;;
68479;SDS011;55469;48.934;12.050;2023-06-19T07:31:04;6.38;;;5.40;;
68479;SDS011;55469;48.934;12.050;2023-06-19T07:33:30;8.38;;;5.28;;
68479;SDS011;55469;48.934;12.050;2023-06-19T07:35:56;6.20;;;5.60;;
68479;SDS011;55469;48.934;12.050;2023-06-19T07:38:22;7.40;;;5.43;;
68479;SDS011;55469;48.934;12.050;2023-06-19T07:40:48;6.13;;;5.10;;
68479;SDS011;55469;48.934;12.050;2023-06-19T07:43:14;6.55;;;5.60;;
68479;SDS011;55469;48.934;12.050;2023-06-19T07:45:40;5.90;;;5.05;;
68479;SDS011;55469;48.934;12.050;2023-06-19T07:48:06;6.00;;;5.40;;
68479;SDS011;55469;48.934;12.050;2023-06-19T07:50:34;6.00;;;5.40;;
68479;SDS011;55469;48.934;12.050;2023-06-19T07:53:00;8.10;;;5.80;;
68479;SDS011;55469;48.934;12.050;2023-06-19T07:55:25;8.80;;;5.63;;
68479;SDS011;55469;48.934;12.050;2023-06-19T07:57:51;6.40;;;5.50;;
68479;SDS011;55469;48.934;12.050;2023-06-19T08:00:22;6.55;;;5.70;;
68479;SDS011;55469;48.934;12.050;2023-06-19T08:02:49;6.43;;;5.63;;
68479;SDS011;55469;48.934;12.050;2023-06-19T08:05:15;6.20;;;5.60;;
68479;SDS011;55469;48.934;12.050;2023-06-19T08:07:42;6.00;;;5.22;;
68479;SDS011;55469;48.934;12.050;2023-06-19T08:10:08;6.00;;;5.18;;
68479;SDS011;55469;48.934;12.050;2023-06-19T08:12:34;6.88;;;5.43;;
68479;SDS011;55469;48.934;12.050;2023-06-19T08:15:00;6.85;;;5.60;;
68479;SDS011;55469;48.934;12.050;2023-06-19T08:17:26;6.28;;;5.65;;
68479;SDS011;55469;48.934;12.050;2023-06-19T08:19:51;6.80;;;6.10;;
68479;SDS011;55469;48.934;12.050;2023-06-19T08:22:17;6.50;;;5.82;;
68479;SDS011;55469;48.934;12.050;2023-06-19T08:24:43;6.30;;;5.68;;
68479;SDS011;55469;48.934;12.050;2023-06-19T08:27:08;8.20;;;5.80;;
68479;SDS011;55469;48.934;12.050;2023-06-19T08:29:34;8.93;;;5.55;;
68479;SDS011;55469;48.934;12.050;2023-06-19T08:32:00;6.93;;;5.85;;
68479;SDS011;55469;48.934;12.050;2023-06-19T08:34:27;5.72;;;5.15;;
68479;SDS011;55469;48.934;12.050;2023-06-19T08:36:53;7.00;;;5.90;;
68479;SDS011;55469;48.934;12.050;2023-06-19T08:39:18;6.40;;;5.70;;
68479;SDS011;55469;48.934;12.050;2023-06-19T08:41:47;6.82;;;5.75;;
68479;SDS011;55469;48.934;12.050;2023-06-19T08:44:13;6.05;;;5.28;;
68479;SDS011;55469;48.934;12.050;2023-06-19T08:46:39;5.88;;;5.15;;
68479;SDS011;55469;48.934;12.050;2023-06-19T08:49:07;6.68;;;5.57;;
68479;SDS011;55469;48.934;12.050;2023-06-19T08:51:35;6.10;;;5.50;;
68479;SDS011;55469;48.934;12.050;2023-06-19T08:54:02;6.22;;;5.63;;
68479;SDS011;55469;48.934;12.050;2023-06-19T08:56:32;6.90;;;5.97;;
68479;SDS011;55469;48.934;12.050;2023-06-19T08:59:15;6.28;;;5.68;;
68479;SDS011;55469;48.934;12.050;2023-06-19T09:02:00;6.40;;;5.80;;
68479;SDS011;55469;48.934;12.050;2023-06-19T09:04:27;6.93;;;5.97;;
68479;SDS011;55469;48.934;12.050;2023-06-19T09:06:55;6.05;;;5.40;;
68479;SDS011;55469;48.934;12.050;2023-06-19T09:09:24;7.40;;;5.53;;
68479;SDS011;55469;48.934;12.050;2023-06-19T09:11:58;7.18;;;5.85;;
68479;SDS011;55469;48.934;12.050;2023-06-19T09:14:39;6.30;;;5.18;;
68479;SDS011;55469;48.934;12.050;2023-06-19T09:17:09;6.18;;;5.57;;
68479;SDS011;55469;48.934;12.050;2023-06-19T09:19:50;7.30;;;5.72;;
68479;SDS011;55469;48.934;12.050;2023-06-19T09:22:17;7.13;;;6.25;;
68479;SDS011;55469;48.934;12.050;2023-06-19T09:24:46;6.40;;;5.47;;
68479;SDS011;55469;48.934;12.050;2023-06-19T09:27:14;6.30;;;5.70;;
68479;SDS011;55469;48.934;12.050;2023-06-19T09:29:45;6.50;;;5.53;;
68479;SDS011;55469;48.934;12.050;2023-06-19T09:34:46;6.05;;;5.45;;
68479;SDS011;55469;48.934;12.050;2023-06-19T09:37:13;6.47;;;5.53;;
68479;SDS011;55469;48.934;12.050;2023-06-19T09:39:40;6.70;;;5.50;;
68479;SDS011;55469;48.934;12.050;2023-06-19T09:42:09;6.65;;;5.30;;
68479;SDS011;55469;48.934;12.050;2023-06-19T09:44:39;6.18;;;5.57;;
68479;SDS011;55469;48.934;12.050;2023-06-19T09:47:14;5.85;;;5.22;;
68479;SDS011;55469;48.934;12.050;2023-06-19T09:49:48;7.30;;;5.80;;
68479;SDS011;55469;48.934;12.050;2023-06-19T09:52:19;7.18;;;5.15;;
68479;SDS011;55469;48.934;12.050;2023-06-19T09:54:49;5.38;;;4.88;;
68479;SDS011;55469;48.934;12.050;2023-06-19T09:57:17;5.80;;;5.20;;
68479;SDS011;55469;48.934;12.050;2023-06-19T09:59:43;6.55;;;5.70;;
68479;SDS011;55469;48.934;12.050;2023-06-19T10:04:53;6.70;;;5.22;;
68479;SDS011;55469;48.934;12.050;2023-06-19T10:07:23;5.95;;;5.15;;
68479;SDS011;55469;48.934;12.050;2023-06-19T10:12:35;5.47;;;4.88;;
68479;SDS011;55469;48.934;12.050;2023-06-19T10:17:49;6.25;;;5.53;;
68479;SDS011;55469;48.934;12.050;2023-06-19T10:20:25;6.03;;;5.20;;
68479;SDS011;55469;48.934;12.050;2023-06-19T10:22:57;5.68;;;4.68;;
68479;SDS011;55469;48.934;12.050;2023-06-19T10:25:30;6.13;;;5.20;;
68479;SDS011;55469;48.934;12.050;2023-06-19T10:27:58;5.00;;;4.50;;
68479;SDS011;55469;48.934;12.050;2023-06-19T10:30:25;5.30;;;4.72;;
68479;SDS011;55469;48.934;12.050;2023-06-19T10:32:51;5.93;;;4.72;;
68479;SDS011;55469;48.934;12.050;2023-06-19T10:35:17;5.10;;;4.60;;
68479;SDS011;55469;48.934;12.050;2023-06-19T10:37:46;5.03;;;4.53;;
68479;SDS011;55469;48.934;12.050;2023-06-19T10:40:12;5.28;;;4.78;;
68479;SDS011;55469;48.934;12.050;2023-06-19T10:42:41;5.40;;;4.70;;
68479;SDS011;55469;48.934;12.050;2023-06-19T10:45:10;4.75;;;4.30;;
68479;SDS011;55469;48.934;12.050;2023-06-19T10:47:38;5.45;;;4.65;;
68479;SDS011;55469;48.934;12.050;2023-06-19T10:50:14;4.97;;;4.45;;
68479;SDS011;55469;48.934;12.050;2023-06-19T10:52:43;4.88;;;4.38;;
68479;SDS011;55469;48.934;12.050;2023-06-19T10:55:11;4.72;;;4.22;;
68479;SDS011;55469;48.934;12.050;2023-06-19T10:57:38;5.20;;;4.70;;
68479;SDS011;55469;48.934;12.050;2023-06-19T11:00:10;4.85;;;4.38;;
68479;SDS011;55469;48.934;12.050;2023-06-19T11:02:38;4.50;;;4.10;;
68479;SDS011;55469;48.934;12.050;2023-06-19T11:05:08;4.90;;;4.38;;
68479;SDS011;55469;48.934;12.050;2023-06-19T11:07:35;4.30;;;3.90;;
68479;SDS011;55469;48.934;12.050;2023-06-19T11:10:01;4.50;;;4.07;;
68479;SDS011;55469;48.934;12.050;2023-06-19T11:12:28;4.47;;;4.07;;
68479;SDS011;55469;48.934;12.050;2023-06-19T11:14:54;4.50;;;4.10;;
68479;SDS011;55469;48.934;12.050;2023-06-19T11:17:19;4.78;;;4.25;;
68479;SDS011;55469;48.934;12.050;2023-06-19T11:19:46;4.72;;;4.28;;
68479;SDS011;55469;48.934;12.050;2023-06-19T11:22:12;4.20;;;3.80;;
68479;SDS011;55469;48.934;12.050;2023-06-19T11:24:45;4.55;;;4.15;;
68479;SDS011;55469;48.934;12.050;2023-06-19T11:27:18;4.82;;;4.10;;
68479;SDS011;55469;48.934;12.050;2023-06-19T11:29:56;5.22;;;4.20;;
68479;SDS011;55469;48.934;12.050;2023-06-19T11:32:24;4.50;;;4.10;;
68479;SDS011;55469;48.934;12.050;2023-06-19T11:34:56;4.55;;;3.92;;
68479;SDS011;55469;48.934;12.050;2023-06-19T11:37:22;4.47;;;4.00;;
68479;SDS011;55469;48.934;12.050;2023-06-19T11:39:49;4.70;;;4.20;;
68479;SDS011;55469;48.934;12.050;2023-06-19T11:42:18;4.30;;;3.75;;
68479;SDS011;55469;48.934;12.050;2023-06-19T11:45:02;4.20;;;3.80;;
68479;SDS011;55469;48.934;12.050;2023-06-19T11:47:31;4.30;;;3.90;;
68479;SDS011;55469;48.934;12.050;2023-06-19T11:49:58;4.65;;;4.15;;
68479;SDS011;55469;48.934;12.050;2023-06-19T11:52:25;3.92;;;3.63;;
68479;SDS011;55469;48.934;12.050;2023-06-19T11:54:51;4.13;;;3.72;;
68479;SDS011;55469;48.934;12.050;2023-06-19T11:57:16;3.80;;;3.50;;
68479;SDS011;55469;48.934;12.050;2023-06-19T11:59:42;4.07;;;3.70;;
68479;SDS011;55469;48.934;12.050;2023-06-19T12:02:08;3.83;;;3.53;;
68479;SDS011;55469;48.934;12.050;2023-06-19T12:04:34;4.10;;;3.70;;
68479;SDS011;55469;48.934;12.050;2023-06-19T12:07:00;4.78;;;3.80;;
68479;SDS011;55469;48.934;12.050;2023-06-19T12:09:27;3.95;;;3.38;;
68479;SDS011;55469;48.934;12.050;2023-06-19T12:11:52;3.85;;;3.55;;
68479;SDS011;55469;48.934;12.050;2023-06-19T12:14:18;4.07;;;3.65;;
68479;SDS011;55469;48.934;12.050;2023-06-19T12:16:45;4.30;;;3.72;;
68479;SDS011;55469;48.934;12.050;2023-06-19T12:19:11;4.72;;;3.80;;
68479;SDS011;55469;48.934;12.050;2023-06-19T12:21:37;6.30;;;4.00;;
68479;SDS011;55469;48.934;12.050;2023-06-19T12:24:03;4.10;;;3.70;;
68479;SDS011;55469;48.934;12.050;2023-06-19T12:26:29;3.90;;;3.50;;
68479;SDS011;55469;48.934;12.050;2023-06-19T12:28:56;4.13;;;3.47;;
68479;SDS011;55469;48.934;12.050;2023-06-19T12:31:21;3.80;;;3.50;;
68479;SDS011;55469;48.934;12.050;2023-06-19T12:33:47;4.13;;;3.72;;
68479;SDS011;55469;48.934;12.050;2023-06-19T12:36:15;3.58;;;3.25;;
68479;SDS011;55469;48.934;12.050;2023-06-19T12:38:41;3.90;;;3.47;;
68479;SDS011;55469;48.934;12.050;2023-06-19T12:41:08;4.45;;;3.50;;
68479;SDS011;55469;48.934;12.050;2023-06-19T12:43:34;3.80;;;3.50;;
68479;SDS011;55469;48.934;12.050;2023-06-19T12:46:00;3.95;;;3.65;;
68479;SDS011;55469;48.934;12.050;2023-06-19T12:48:26;3.55;;;3.25;;
68479;SDS011;55469;48.934;12.050;2023-06-19T12:50:52;4.00;;;3.60;;
68479;SDS011;55469;48.934;12.050;2023-06-19T12:53:18;3.78;;;3.40;;
68479;SDS011;55469;48.934;12.050;2023-06-19T12:55:44;3.70;;;3.40;;
68479;SDS011;55469;48.934;12.050;2023-06-19T12:58:10;3.38;;;3.08;;
68479;SDS011;55469;48.934;12.050;2023-06-19T13:00:36;5.47;;;3.30;;
68479;SDS011;55469;48.934;12.050;2023-06-19T13:03:02;3.95;;;3.55;;
68479;SDS011;55469;48.934;12.050;2023-06-19T13:05:28;3.60;;;3.30;;
68479;SDS011;55469;48.934;12.050;2023-06-19T13:07:54;3.45;;;3.15;;
68479;SDS011;55469;48.934;12.050;2023-06-19T13:10:20;3.45;;;3.15;;
68479;SDS011;55469;48.934;12.050;2023-06-19T13:12:45;3.53;;;3.22;;
68479;SDS011;55469;48.934;12.050;2023-06-19T13:15:11;3.55;;;3.25;;
68479;SDS011;55469;48.934;12.050;2023-06-19T13:17:37;3.83;;;3.30;;
68479;SDS011;55469;48.934;12.050;2023-06-19T13:20:03;3.45;;;3.15;;
68479;SDS011;55469;48.934;12.050;2023-06-19T13:22:30;3.33;;;3.03;;
68479;SDS011;55469;48.934;12.050;2023-06-19T13:24:58;4.22;;;3.53;;
68479;SDS011;55469;48.934;12.050;2023-06-19T13:27:23;3.92;;;3.40;;
68479;SDS011;55469;48.934;12.050;2023-06-19T13:29:49;3.67;;;3.38;;
68479;SDS011;55469;48.934;12.050;2023-06-19T13:32:15;4.22;;;3.10;;
68479;SDS011;55469;48.934;12.050;2023-06-19T13:34:41;3.60;;;3.30;;
68479;SDS011;55469;48.934;12.050;2023-06-19T13:37:07;3.40;;;3.10;;
68479;SDS011;55469;48.934;12.050;2023-06-19T13:39:34;3.92;;;3.58;;
68479;SDS011;55469;48.934;12.050;2023-06-19T13:42:01;4.00;;;3.60;;
68479;SDS011;55469;48.934;12.050;2023-06-19T13:44:26;3.80;;;3.22;;
68479;SDS011;55469;48.934;12.050;2023-06-19T13:46:52;3.50;;;3.20;;
68479;SDS011;55469;48.934;12.050;2023-06-19T13:49:19;3.65;;;3.35;;
68479;SDS011;55469;48.934;12.050;2023-06-19T13:51:45;3.63;;;3.33;;
68479;SDS011;55469;48.934;12.050;2023-06-19T13:54:12;3.60;;;3.30;;
68479;SDS011;55469;48.934;12.050;2023-06-19T13:56:38;3.53;;;3.22;;
68479;SDS011;55469;48.934;12.050;2023-06-19T13:59:05;3.58;;;3.28;;
68479;SDS011;55469;48.934;12.050;2023-06-19T14:01:31;3.63;;;3.33;;
68479;SDS011;55469;48.934;12.050;2023-06-19T14:04:00;3.55;;;3.25;;
68479;SDS011;55469;48.934;12.050;2023-06-19T14:06:26;4.05;;;3.30;;
68479;SDS011;55469;48.934;12.050;2023-06-19T14:08:52;4.38;;;3.65;;
68479;SDS011;55469;48.934;12.050;2023-06-19T14:11:19;4.00;;;2.88;;
68479;SDS011;55469;48.934;12.050;2023-06-19T14:13:44;3.55;;;3.25;;
68479;SDS011;55469;48.934;12.050;2023-06-19T14:16:10;3.22;;;3.00;;
68479;SDS011;55469;48.934;12.050;2023-06-19T14:18:36;3.45;;;3.15;;
68479;SDS011;55469;48.934;12.050;2023-06-19T14:21:02;3.28;;;3.08;;
68479;SDS011;55469;48.934;12.050;2023-06-19T14:23:28;3.40;;;3.10;;
68479;SDS011;55469;48.934;12.050;2023-06-19T14:25:54;2.88;;;2.67;;
68479;SDS011;55469;48.934;12.050;2023-06-19T14:28:20;3.40;;;3.10;;
68479;SDS011;55469;48.934;12.050;2023-06-19T14:30:46;2.90;;;2.70;;
68479;SDS011;55469;48.934;12.050;2023-06-19T14:33:12;3.30;;;3.03;;
68479;SDS011;55469;48.934;12.050;2023-06-19T14:35:40;3.50;;;3.20;;
68479;SDS011;55469;48.934;12.050;2023-06-19T14:38:08;3.03;;;2.80;;
68479;SDS011;55469;48.934;12.050;2023-06-19T14:40:34;2.92;;;2.65;;
68479;SDS011;55469;48.934;12.050;2023-06-19T14:43:00;3.22;;;2.92;;